Time;durP1;ratioP1;P1;durP2;ratioP2;P2;SDS_P1;SDS_P2;PMS_P1;PMS_P2;Temp;Humidity;BMP_temperature;BMP_pressure;BME280_temperature;BME280_humidity;BME280_pressure;Samples;Min_cycle;Max_cycle;Signal;HPM_P1;HPM_P2
2022/04/25 00:00:18;;;;;;;7.33;5.17;;;12.90;76.10;;;;;;1865268;77;21024;-59
2022/04/25 00:02:49;;;;;;;6.62;5.10;;;13.00;76.10;;;;;;1904681;75;21040;-59
2022/04/25 00:05:18;;;;;;;9.08;5.25;;;12.90;75.90;;;;;;1865314;77;21490;-60
2022/04/25 00:07:48;;;;;;;5.80;4.90;;;12.90;75.70;;;;;;1904753;75;21045;-59
2022/04/25 00:10:17;;;;;;;6.03;5.40;;;12.80;75.70;;;;;;1865358;77;21061;-60
2022/04/25 00:12:47;;;;;;;7.97;5.25;;;12.80;75.90;;;;;;1904683;75;21153;-59
2022/04/25 00:15:16;;;;;;;6.40;5.03;;;12.80;76.20;;;;;;1865361;77;21087;-59
2022/04/25 00:17:46;;;;;;;5.87;4.58;;;12.70;76.10;;;;;;1904822;75;21138;-59
2022/04/25 00:20:15;;;;;;;10.20;4.62;;;12.70;76.40;;;;;;1865370;77;21088;-60
2022/04/25 00:22:46;;;;;;;6.97;4.60;;;12.60;76.50;;;;;;1904671;75;21479;-60
2022/04/25 00:25:15;;;;;;;7.12;5.37;;;12.60;76.70;;;;;;1865204;77;21357;-59
2022/04/25 00:27:45;;;;;;;6.92;4.87;;;12.60;76.60;;;;;;1904718;75;21069;-59
2022/04/25 00:30:14;;;;;;;5.70;4.72;;;12.60;76.60;;;;;;1865362;77;21103;-59
2022/04/25 00:32:43;;;;;;;6.53;4.42;;;12.60;76.80;;;;;;1904690;75;21005;-60
2022/04/25 00:35:13;;;;;;;7.95;5.35;;;12.60;76.70;;;;;;1865372;76;21048;-59
2022/04/25 00:37:42;;;;;;;6.20;5.12;;;12.50;76.60;;;;;;1904602;75;21048;-59
2022/04/25 00:40:12;;;;;;;6.42;4.62;;;12.50;76.80;;;;;;1865361;77;21114;-59
2022/04/25 00:42:41;;;;;;;6.58;5.47;;;12.50;77.00;;;;;;1904758;75;21036;-59
2022/04/25 00:45:12;;;;;;;6.95;4.97;;;12.50;77.10;;;;;;1865164;77;21111;-59
2022/04/25 00:47:42;;;;;;;7.25;4.33;;;12.50;77.20;;;;;;1904647;75;21040;-60
2022/04/25 00:50:13;;;;;;;6.85;5.20;;;12.50;77.20;;;;;;1848444;76;21068;-59
2022/04/25 00:52:43;;;;;;;9.45;4.85;;;12.60;77.30;;;;;;1883613;76;21472;-59
2022/04/25 00:55:12;;;;;;;9.85;4.95;;;12.50;77.20;;;;;;1883630;76;21096;-59
2022/04/25 00:57:42;;;;;;;9.08;4.90;;;12.50;77.30;;;;;;1883590;76;21112;-59
2022/04/25 01:00:13;;;;;;;6.97;5.10;;;12.40;77.40;;;;;;1883584;76;21057;-59
2022/04/25 01:02:43;;;;;;;6.70;5.25;;;12.40;77.50;;;;;;1883588;76;21026;-59
2022/04/25 01:05:12;;;;;;;5.28;4.20;;;12.40;77.50;;;;;;1883473;76;21034;-59
2022/04/25 01:07:41;;;;;;;7.75;5.20;;;12.40;77.70;;;;;;1883532;76;21040;-59
2022/04/25 01:10:11;;;;;;;6.62;5.00;;;12.40;77.90;;;;;;1883610;76;21049;-59
2022/04/25 01:12:41;;;;;;;8.43;5.25;;;12.40;78.10;;;;;;1883585;76;21034;-59
2022/04/25 01:15:12;;;;;;;6.17;5.10;;;12.40;77.30;;;;;;1883458;76;21472;-59
2022/04/25 01:17:42;;;;;;;7.83;5.12;;;12.40;77.50;;;;;;1883534;76;21100;-59
2022/04/25 01:20:12;;;;;;;6.95;5.22;;;12.40;77.70;;;;;;1883500;76;21042;-59
2022/04/25 01:22:47;;;;;;;11.40;5.50;;;12.40;77.70;;;;;;1883476;76;21030;-59
2022/04/25 01:28:03;;;;;;;8.23;5.30;;;12.30;77.50;;;;;;1883595;76;21045;-59
2022/04/25 01:30:32;;;;;;;7.22;5.40;;;12.20;77.20;;;;;;1883592;76;21026;-59
2022/04/25 01:33:02;;;;;;;9.08;5.55;;;12.10;77.20;;;;;;1883621;76;21072;-59
2022/04/25 01:35:31;;;;;;;9.03;5.95;;;12.10;77.50;;;;;;1883571;76;21026;-59
2022/04/25 01:38:01;;;;;;;10.45;6.12;;;12.10;77.70;;;;;;1883530;76;21105;-60
2022/04/25 01:40:30;;;;;;;10.03;6.97;;;12.10;77.90;;;;;;1883495;76;21099;-59
2022/04/25 01:42:59;;;;;;;10.28;6.62;;;12.10;78.00;;;;;;1883535;76;21009;-59
2022/04/25 01:45:29;;;;;;;16.97;6.83;;;12.10;77.90;;;;;;1883415;76;21107;-59
2022/04/25 01:47:58;;;;;;;32.50;8.55;;;12.00;77.90;;;;;;1883448;76;21116;-59
2022/04/25 01:50:28;;;;;;;22.55;8.08;;;12.00;78.10;;;;;;1885567;75;21127;-59
2022/04/25 01:52:57;;;;;;;13.22;6.17;;;12.00;78.20;;;;;;1889347;76;21038;-59
2022/04/25 01:55:26;;;;;;;7.67;5.92;;;12.00;78.20;;;;;;1889470;76;21417;-59
2022/04/25 01:57:55;;;;;;;10.30;6.92;;;12.00;78.30;;;;;;1889315;76;21010;-60
2022/04/25 02:00:25;;;;;;;5.72;4.70;;;12.00;78.50;;;;;;1889331;76;21053;-59
2022/04/25 02:02:55;;;;;;;7.90;4.95;;;12.00;78.40;;;;;;1889284;76;21045;-59
2022/04/25 02:05:24;;;;;;;8.23;5.83;;;12.00;78.50;;;;;;1889306;76;21029;-60
2022/04/25 02:07:53;;;;;;;8.70;5.53;;;12.00;78.60;;;;;;1889367;76;21053;-59
2022/04/25 02:10:23;;;;;;;25.30;7.62;;;12.00;78.60;;;;;;1889454;76;21029;-59
2022/04/25 02:12:52;;;;;;;25.20;6.95;;;12.00;78.70;;;;;;1889293;76;21033;-59
2022/04/25 02:15:22;;;;;;;21.00;6.78;;;11.90;78.60;;;;;;1889423;76;21100;-59
2022/04/25 02:17:51;;;;;;;16.40;6.00;;;11.90;78.70;;;;;;1889276;76;21033;-59
2022/04/25 02:20:21;;;;;;;11.63;5.80;;;11.90;78.90;;;;;;1889309;76;21111;-59
2022/04/25 02:22:50;;;;;;;11.90;5.65;;;11.90;78.90;;;;;;1889393;76;21037;-60
2022/04/25 02:25:20;;;;;;;14.25;5.72;;;11.90;78.90;;;;;;1889395;76;21103;-60
2022/04/25 02:27:49;;;;;;;15.83;4.97;;;11.90;78.80;;;;;;1889286;76;21010;-59
2022/04/25 02:30:18;;;;;;;13.53;6.33;;;11.90;79.00;;;;;;1889302;76;21080;-60
2022/04/25 02:32:48;;;;;;;9.13;5.70;;;11.90;79.10;;;;;;1889359;76;21025;-59
2022/04/25 02:35:17;;;;;;;7.42;5.28;;;11.90;79.30;;;;;;1889236;76;21146;-59
2022/04/25 02:37:47;;;;;;;9.78;5.78;;;11.90;79.30;;;;;;1889337;76;21540;-59
2022/04/25 02:40:17;;;;;;;15.38;6.60;;;11.90;79.40;;;;;;1889330;76;21095;-59
2022/04/25 02:42:46;;;;;;;11.93;5.70;;;11.90;79.40;;;;;;1889204;76;21033;-59
2022/04/25 02:45:16;;;;;;;9.50;6.28;;;11.90;79.50;;;;;;1889248;76;21029;-59
2022/04/25 02:47:45;;;;;;;8.00;6.22;;;11.90;79.50;;;;;;1889246;76;21033;-60
2022/04/25 02:50:14;;;;;;;15.93;7.17;;;11.90;79.40;;;;;;1889264;76;21124;-59
2022/04/25 02:52:44;;;;;;;18.20;7.97;;;12.00;79.40;;;;;;1889303;76;21029;-59
2022/04/25 02:55:13;;;;;;;18.65;8.73;;;12.00;79.40;;;;;;1889279;76;20997;-59
2022/04/25 02:57:43;;;;;;;25.57;8.83;;;12.00;79.30;;;;;;1889298;76;21033;-60
2022/04/25 03:00:13;;;;;;;55.67;10.93;;;11.90;78.90;;;;;;1889396;76;21005;-60
2022/04/25 03:02:42;;;;;;;13.85;7.33;;;11.90;79.10;;;;;;1889271;76;20998;-59
2022/04/25 03:05:11;;;;;;;20.48;7.83;;;11.80;79.30;;;;;;1841088;77;21034;-59
2022/04/25 03:07:41;;;;;;;22.77;7.37;;;11.90;79.40;;;;;;1889185;76;21511;-59
2022/04/25 03:10:10;;;;;;;46.05;8.55;;;11.90;79.40;;;;;;1841039;77;21045;-59
2022/04/25 03:12:40;;;;;;;22.32;8.73;;;11.90;79.40;;;;;;1889266;76;21096;-59
2022/04/25 03:15:09;;;;;;;19.02;6.78;;;12.00;79.40;;;;;;1841102;78;21115;-59
2022/04/25 03:17:39;;;;;;;11.60;6.28;;;12.10;79.40;;;;;;1889252;76;21033;-59
2022/04/25 03:20:09;;;;;;;15.23;7.30;;;12.10;79.20;;;;;;1841023;78;21162;-59
2022/04/25 03:22:38;;;;;;;10.10;6.72;;;12.10;79.20;;;;;;1889254;76;21033;-59
2022/04/25 03:25:08;;;;;;;13.70;7.55;;;12.20;79.20;;;;;;1841003;78;21081;-59
2022/04/25 03:27:37;;;;;;;10.88;7.08;;;12.20;79.10;;;;;;1889199;76;21147;-59
2022/04/25 03:30:08;;;;;;;15.35;7.30;;;12.30;79.20;;;;;;1841007;78;21361;-60
2022/04/25 03:32:37;;;;;;;10.32;6.75;;;12.40;79.00;;;;;;1889167;76;21162;-59
2022/04/25 03:35:07;;;;;;;15.48;6.72;;;12.40;78.90;;;;;;1841112;77;21049;-60
2022/04/25 03:37:37;;;;;;;14.35;6.37;;;12.40;78.80;;;;;;1889308;76;21010;-59
2022/04/25 03:40:08;;;;;;;18.37;6.50;;;12.50;78.90;;;;;;1841040;78;21053;-59
2022/04/25 03:42:39;;;;;;;17.15;7.12;;;12.60;78.90;;;;;;1889255;76;21116;-59
2022/04/25 03:45:10;;;;;;;21.68;6.80;;;12.80;78.80;;;;;;1840702;77;21164;-59
2022/04/25 03:47:40;;;;;;;20.35;7.40;;;12.90;78.70;;;;;;1889268;76;21041;-59
2022/04/25 03:50:11;;;;;;;19.75;7.47;;;13.00;78.50;;;;;;1889466;76;21158;-59
2022/04/25 03:52:43;;;;;;;12.95;6.03;;;13.20;78.40;;;;;;1859424;77;21076;-59
2022/04/25 03:58:02;;;;;;;29.18;9.35;;;13.40;78.10;;;;;;1865254;77;21139;-59
2022/04/25 04:00:33;;;;;;;21.87;9.15;;;13.60;77.80;;;;;;1904725;75;21009;-59
2022/04/25 04:03:02;;;;;;;16.25;7.55;;;13.70;77.60;;;;;;1865353;76;21048;-59
2022/04/25 04:05:32;;;;;;;22.13;8.45;;;13.90;77.40;;;;;;1904700;75;21032;-60
2022/04/25 04:08:01;;;;;;;11.40;7.70;;;14.00;77.10;;;;;;1865250;76;21041;-59
2022/04/25 04:10:30;;;;;;;15.30;8.65;;;14.00;77.00;;;;;;1904934;75;21044;-60
2022/04/25 04:13:00;;;;;;;15.93;8.45;;;14.10;76.90;;;;;;1865395;77;21146;-59
2022/04/25 04:15:30;;;;;;;15.03;7.78;;;14.20;76.70;;;;;;1904947;75;21040;-59
2022/04/25 04:17:59;;;;;;;18.12;8.48;;;14.30;76.60;;;;;;1865301;77;21053;-60
2022/04/25 04:20:28;;;;;;;18.02;7.92;;;14.40;76.40;;;;;;1904947;75;21041;-60
2022/04/25 04:22:58;;;;;;;17.52;8.58;;;14.50;76.20;;;;;;1865368;77;21521;-59
2022/04/25 04:25:27;;;;;;;14.10;8.80;;;14.60;76.10;;;;;;1904715;75;21091;-59
2022/04/25 04:27:57;;;;;;;16.48;8.03;;;14.70;76.00;;;;;;1865220;77;21485;-59
2022/04/25 04:30:27;;;;;;;19.05;8.95;;;14.70;75.80;;;;;;1904584;75;21040;-59
2022/04/25 04:32:56;;;;;;;24.85;9.25;;;14.80;75.70;;;;;;1865249;77;21048;-59
2022/04/25 04:38:13;;;;;;;28.40;9.68;;;15.00;75.50;;;;;;1865270;77;21095;-59
2022/04/25 04:40:42;;;;;;;21.40;8.45;;;15.10;75.40;;;;;;1904600;75;21030;-60
2022/04/25 04:43:11;;;;;;;21.85;9.98;;;15.20;75.30;;;;;;1865207;77;21098;-60
2022/04/25 04:45:43;;;;;;;15.88;8.30;;;15.30;75.10;;;;;;1904518;75;21119;-60
2022/04/25 04:48:13;;;;;;;19.15;7.92;;;15.40;75.10;;;;;;1865173;76;21079;-60
2022/04/25 04:50:42;;;;;;;12.10;7.20;;;15.40;74.90;;;;;;1904607;75;21036;-60
2022/04/25 04:53:12;;;;;;;13.28;7.40;;;15.50;74.90;;;;;;1865245;76;21072;-60
2022/04/25 04:55:41;;;;;;;19.25;7.58;;;15.60;74.70;;;;;;1904630;75;21012;-60
2022/04/25 04:58:10;;;;;;;37.23;11.05;;;15.70;74.60;;;;;;1865108;77;21174;-60
2022/04/25 05:00:43;;;;;;;15.72;7.40;;;15.80;74.40;;;;;;1904599;75;21033;-60
2022/04/25 05:03:11;;;;;;;15.43;7.20;;;15.90;74.30;;;;;;1904675;74;21527;-60
2022/04/25 05:05:40;;;;;;;12.00;5.75;;;16.00;74.10;;;;;;1904614;75;21099;-60
2022/04/25 05:08:10;;;;;;;14.95;5.72;;;16.00;73.70;;;;;;1904503;75;21008;-60
2022/04/25 05:10:40;;;;;;;12.37;5.67;;;16.10;73.60;;;;;;1904707;75;21037;-60
2022/04/25 05:13:10;;;;;;;10.40;5.08;;;16.20;73.60;;;;;;1904699;75;21107;-60
2022/04/25 05:15:39;;;;;;;8.95;4.85;;;16.30;73.60;;;;;;1904593;75;21029;-60
2022/04/25 05:18:08;;;;;;;11.80;6.50;;;16.40;73.40;;;;;;1904526;75;21072;-59
2022/04/25 05:20:38;;;;;;;12.75;5.20;;;16.40;73.20;;;;;;1904595;75;21072;-60
2022/04/25 05:23:10;;;;;;;8.55;5.47;;;16.50;72.70;;;;;;1904625;75;21036;-60
2022/04/25 05:25:41;;;;;;;9.35;5.67;;;16.60;72.60;;;;;;1904585;75;21092;-60
2022/04/25 05:28:11;;;;;;;13.48;4.80;;;16.70;72.40;;;;;;1904569;75;21040;-60
2022/04/25 05:30:40;;;;;;;6.62;4.58;;;16.80;72.00;;;;;;1904552;75;21102;-59
2022/04/25 05:33:10;;;;;;;12.07;4.75;;;16.80;71.90;;;;;;1904683;75;21128;-60
2022/04/25 05:35:40;;;;;;;8.95;5.03;;;16.90;71.80;;;;;;1904486;75;21041;-60
2022/04/25 05:38:11;;;;;;;7.08;4.85;;;17.00;71.70;;;;;;1904716;75;21103;-60
2022/04/25 05:40:41;;;;;;;7.90;5.10;;;17.00;71.60;;;;;;1904567;75;21029;-60
2022/04/25 05:43:10;;;;;;;10.88;6.25;;;17.10;71.50;;;;;;1904736;75;21037;-60
2022/04/25 05:45:41;;;;;;;8.05;4.78;;;17.20;71.00;;;;;;1904646;75;21036;-60
2022/04/25 05:53:46;;;;;;;9.60;4.97;;;17.40;70.80;;;;;;1893718;74;21139;-60
2022/04/25 05:56:15;;;;;;;12.73;5.10;;;17.50;70.70;;;;;;1889399;76;21034;-60
2022/04/25 05:58:44;;;;;;;8.03;4.85;;;17.60;70.30;;;;;;1889339;76;21530;-60
2022/04/25 06:01:13;;;;;;;9.68;5.08;;;17.70;70.50;;;;;;1889241;76;21091;-59
2022/04/25 06:03:42;;;;;;;13.38;7.37;;;17.80;70.30;;;;;;1889235;76;21045;-60
2022/04/25 06:06:12;;;;;;;15.23;8.30;;;17.90;70.30;;;;;;1889390;76;21025;-59
2022/04/25 06:08:41;;;;;;;11.12;6.80;;;18.00;70.00;;;;;;1889394;76;21073;-59
2022/04/25 06:11:10;;;;;;;91.50;12.75;;;18.00;70.10;;;;;;1889249;76;21029;-60
2022/04/25 06:13:44;;;;;;;12.23;5.30;;;18.10;69.90;;;;;;1889452;76;21096;-59
2022/04/25 06:16:10;;;;;;;9.43;4.53;;;18.20;69.80;;;;;;1841556;76;21066;-60
2022/04/25 06:18:40;;;;;;;8.00;4.78;;;18.20;69.60;;;;;;1889408;76;21092;-60
2022/04/25 06:21:10;;;;;;;6.70;4.30;;;18.30;69.10;;;;;;1841123;78;21022;-60
2022/04/25 06:23:39;;;;;;;5.90;4.00;;;18.40;69.00;;;;;;1889251;76;21598;-60
2022/04/25 06:26:09;;;;;;;7.42;4.30;;;18.40;68.70;;;;;;1840960;78;21120;-60
2022/04/25 06:28:39;;;;;;;5.17;4.33;;;18.50;68.80;;;;;;1889258;76;21127;-60
2022/04/25 06:31:08;;;;;;;6.65;4.47;;;18.50;68.60;;;;;;1841056;78;21089;-60
2022/04/25 06:33:38;;;;;;;8.00;4.33;;;18.60;67.70;;;;;;1889429;76;21033;-60
2022/04/25 06:36:08;;;;;;;8.45;3.83;;;18.70;67.80;;;;;;1841113;77;21108;-60
2022/04/25 06:38:37;;;;;;;6.05;4.55;;;18.70;67.80;;;;;;1889406;76;21099;-60
2022/04/25 06:41:07;;;;;;;8.03;4.42;;;18.80;67.80;;;;;;1841120;78;21473;-60
2022/04/25 06:43:36;;;;;;;5.33;4.22;;;18.90;67.60;;;;;;1889431;76;21034;-60
2022/04/25 06:46:06;;;;;;;6.17;4.15;;;19.00;66.80;;;;;;1841072;78;21066;-60
2022/04/25 06:48:35;;;;;;;5.85;3.87;;;19.10;66.10;;;;;;1889323;76;21034;-60
2022/04/25 06:51:05;;;;;;;4.45;3.37;;;19.10;66.10;;;;;;1840956;77;21022;-60
2022/04/25 06:53:34;;;;;;;10.08;4.60;;;19.20;65.60;;;;;;1889314;75;21069;-60
2022/04/25 06:56:04;;;;;;;7.60;3.83;;;19.20;64.60;;;;;;1841200;78;21061;-60
2022/04/25 06:58:33;;;;;;;4.17;3.42;;;19.30;64.80;;;;;;1889256;76;21044;-60
2022/04/25 07:01:03;;;;;;;4.65;3.42;;;19.30;64.70;;;;;;1840971;78;21018;-60
2022/04/25 07:03:32;;;;;;;5.35;3.50;;;19.40;64.30;;;;;;1889360;76;21033;-60
2022/04/25 07:06:02;;;;;;;4.50;3.72;;;19.50;64.10;;;;;;1840913;78;21018;-60
2022/04/25 07:08:32;;;;;;;9.70;4.80;;;19.50;64.40;;;;;;1889170;76;21091;-60
2022/04/25 07:11:01;;;;;;;18.73;4.87;;;19.50;63.90;;;;;;1841017;77;21104;-60
2022/04/25 07:13:30;;;;;;;7.28;3.20;;;19.60;63.60;;;;;;1889232;76;21456;-60
2022/04/25 07:15:59;;;;;;;5.70;4.00;;;19.60;63.40;;;;;;1841024;78;21433;-60
2022/04/25 07:18:29;;;;;;;6.10;3.83;;;19.70;63.40;;;;;;1889198;76;21067;-60
2022/04/25 07:20:59;;;;;;;4.78;3.17;;;19.70;63.50;;;;;;1841036;77;21236;-60
2022/04/25 07:28:49;;;;;;;10.90;4.15;;;19.90;62.30;;;;;;1889355;76;21135;-59
2022/04/25 07:31:18;;;;;;;10.60;7.15;;;20.00;61.70;;;;;;1841117;78;21065;-59
2022/04/25 07:33:48;;;;;;;4.90;3.35;;;20.00;61.00;;;;;;1889312;76;21103;-59
2022/04/25 07:36:19;;;;;;;8.00;3.87;;;20.10;60.50;;;;;;1841149;77;21049;-59
2022/04/25 07:38:48;;;;;;;6.58;3.17;;;20.20;60.20;;;;;;1889357;76;21002;-59
2022/04/25 07:41:19;;;;;;;7.53;3.20;;;20.20;60.20;;;;;;1841046;77;21167;-59
2022/04/25 07:43:48;;;;;;;8.50;3.95;;;20.30;60.00;;;;;;1889549;76;21343;-61
2022/04/25 07:46:20;;;;;;;6.45;3.85;;;20.40;59.80;;;;;;1841077;78;21056;-59
2022/04/25 07:48:49;;;;;;;9.53;3.67;;;20.40;59.20;;;;;;1889343;76;21162;-60
2022/04/25 07:51:18;;;;;;;5.42;3.70;;;20.50;58.70;;;;;;1841112;78;21065;-59
2022/04/25 07:53:48;;;;;;;5.47;3.30;;;20.60;59.20;;;;;;1890809;74;21134;-59
2022/04/25 07:56:17;;;;;;;6.28;2.98;;;20.60;58.70;;;;;;1847271;77;21073;-59
2022/04/25 07:58:46;;;;;;;5.67;2.83;;;20.60;57.70;;;;;;1895684;76;21104;-60
2022/04/25 08:01:16;;;;;;;7.90;3.95;;;20.70;56.70;;;;;;1847268;77;21069;-59
2022/04/25 08:03:45;;;;;;;7.53;4.67;;;20.70;56.70;;;;;;1895719;76;21009;-59
2022/04/25 08:06:15;;;;;;;7.12;3.25;;;20.80;56.60;;;;;;1847336;78;21046;-59
2022/04/25 08:08:44;;;;;;;6.83;3.10;;;20.80;56.40;;;;;;1895588;76;21029;-59
2022/04/25 08:11:14;;;;;;;7.35;3.50;;;21.00;55.60;;;;;;1847279;77;21049;-59
2022/04/25 08:19:20;;;;;;;4.28;3.37;;;21.10;55.90;;;;;;1895029;76;21013;-62
2022/04/25 08:21:50;;;;;;;6.60;4.10;;;21.10;55.50;;;;;;1846688;78;21174;-65
2022/04/25 08:24:19;;;;;;;5.90;2.83;;;21.20;55.30;;;;;;1894723;76;21080;-59
2022/04/25 08:26:49;;;;;;;5.55;3.25;;;21.30;54.70;;;;;;1846602;78;21128;-65
2022/04/25 08:29:18;;;;;;;5.83;3.37;;;21.40;54.80;;;;;;1895044;76;21017;-61
2022/04/25 08:31:48;;;;;;;6.08;3.90;;;21.40;55.00;;;;;;1846487;78;21049;-59
2022/04/25 08:34:18;;;;;;;4.72;3.12;;;21.50;54.90;;;;;;1894984;76;21029;-62
2022/04/25 08:36:47;;;;;;;11.97;4.55;;;21.50;54.80;;;;;;1846828;77;21042;-63
2022/04/25 08:39:16;;;;;;;6.97;3.70;;;21.50;54.60;;;;;;1894820;76;21115;-59
2022/04/25 08:41:48;;;;;;;5.37;3.95;;;21.50;54.70;;;;;;1846707;77;21171;-60
2022/04/25 08:44:24;;;;;;;15.68;4.50;;;21.50;54.50;;;;;;1929976;74;21097;-63
2022/04/25 08:46:55;;;;;;;4.80;3.77;;;21.50;55.10;;;;;;1931205;73;21061;-65
2022/04/25 08:49:24;;;;;;;10.08;3.25;;;21.60;54.60;;;;;;1931253;74;21420;-60
2022/04/25 08:52:00;;;;;;;7.15;3.55;;;21.60;54.60;;;;;;1931270;74;21033;-63
2022/04/25 08:54:30;;;;;;;5.00;3.50;;;21.70;54.70;;;;;;1930345;73;21136;-63
2022/04/25 08:57:01;;;;;;;8.13;3.80;;;21.80;54.70;;;;;;1928001;74;21100;-63
2022/04/25 08:59:31;;;;;;;5.70;3.22;;;21.90;54.20;;;;;;1927758;74;21029;-63
2022/04/25 09:02:01;;;;;;;5.67;3.17;;;22.00;54.60;;;;;;1927771;74;21001;-61
2022/04/25 09:04:30;;;;;;;7.92;2.85;;;22.10;54.50;;;;;;1927905;74;21139;-63
2022/04/25 09:07:00;;;;;;;4.92;3.05;;;22.10;52.90;;;;;;1927766;74;21041;-64
2022/04/25 09:09:29;;;;;;;10.35;3.25;;;22.20;53.10;;;;;;1927643;74;21207;-61
2022/04/25 09:12:13;;;;;;;16.93;4.55;;;22.20;52.90;;;;;;1927961;74;21053;-62
2022/04/25 09:14:44;;;;;;;4.97;3.87;;;22.20;52.80;;;;;;1928030;74;21072;-62
2022/04/25 09:17:14;;;;;;;18.20;5.72;;;22.30;53.60;;;;;;1927879;74;21525;-59
2022/04/25 09:19:43;;;;;;;10.93;6.35;;;22.30;53.20;;;;;;1927685;74;21139;-61
2022/04/25 09:22:13;;;;;;;20.30;10.75;;;22.30;52.90;;;;;;1927683;74;21001;-61
2022/04/25 09:24:47;;;;;;;7.40;4.05;;;22.30;52.50;;;;;;1927817;74;21089;-65
2022/04/25 09:27:23;;;;;;;8.53;3.47;;;22.30;53.00;;;;;;1927785;74;21060;-65
2022/04/25 09:29:50;;;;;;;6.30;3.15;;;22.30;53.00;;;;;;1927308;74;21205;-66
2022/04/25 09:32:20;;;;;;;4.25;3.22;;;22.40;52.80;;;;;;1927846;74;21076;-69
2022/04/25 09:35:03;;;;;;;6.42;3.45;;;22.40;52.90;;;;;;1927790;74;21606;-66
2022/04/25 09:37:49;;;;;;;17.20;7.42;;;22.40;52.30;;;;;;1927673;74;21162;-69
2022/04/25 09:40:28;;;;;;;17.62;9.63;;;22.40;52.50;;;;;;1927675;74;21150;-69
2022/04/25 09:43:07;;;;;;;17.52;10.45;;;22.50;53.00;;;;;;1927731;74;21040;-63
2022/04/25 09:45:41;;;;;;;17.45;9.83;;;22.50;52.70;;;;;;1927607;74;21033;-67
2022/04/25 09:48:13;;;;;;;15.38;9.63;;;22.50;52.90;;;;;;1927802;73;21432;-64
2022/04/25 09:50:42;;;;;;;18.40;8.85;;;22.50;53.20;;;;;;1927766;74;21087;-63
2022/04/25 09:53:11;;;;;;;22.98;10.32;;;22.50;53.60;;;;;;1927683;74;21029;-65
2022/04/25 09:55:41;;;;;;;20.52;10.40;;;22.60;53.70;;;;;;1910265;74;21565;-62
2022/04/25 09:58:22;;;;;;;17.67;10.05;;;22.60;53.70;;;;;;1894253;76;21021;-66
2022/04/25 10:00:53;;;;;;;16.57;9.05;;;22.60;53.50;;;;;;1894794;76;21053;-65
2022/04/25 10:03:35;;;;;;;12.98;9.08;;;22.70;53.70;;;;;;1894806;76;21033;-66
2022/04/25 10:06:05;;;;;;;16.02;9.33;;;22.70;53.60;;;;;;1894810;76;21025;-66
2022/04/25 10:08:36;;;;;;;9.50;6.00;;;22.80;53.50;;;;;;1894654;76;21005;-66
2022/04/25 10:11:07;;;;;;;14.80;6.25;;;22.80;53.50;;;;;;1894676;76;21013;-65
2022/04/25 10:13:36;;;;;;;11.70;7.33;;;22.80;53.50;;;;;;1894707;76;21033;-66
2022/04/25 10:16:06;;;;;;;12.75;8.18;;;22.90;53.80;;;;;;1894752;76;21033;-66
2022/04/25 10:18:37;;;;;;;17.23;8.83;;;23.10;53.30;;;;;;1894681;75;21033;-65
2022/04/25 10:21:09;;;;;;;11.18;7.20;;;23.10;53.30;;;;;;1894363;75;21057;-66
2022/04/25 10:23:38;;;;;;;13.38;7.28;;;23.10;53.20;;;;;;1894769;75;21037;-66
2022/04/25 10:26:07;;;;;;;8.05;6.33;;;23.10;54.30;;;;;;1894612;76;21029;-65
2022/04/25 10:28:48;;;;;;;16.00;9.13;;;23.20;53.60;;;;;;1894533;76;21037;-65
2022/04/25 10:31:26;;;;;;;30.20;9.98;;;23.30;53.30;;;;;;1875700;75;21355;-65
2022/04/25 10:33:58;;;;;;;17.27;8.23;;;23.30;53.30;;;;;;1894595;75;21037;-65
2022/04/25 10:36:42;;;;;;;13.18;6.67;;;23.30;53.30;;;;;;1894628;76;21029;-65
2022/04/25 10:39:19;;;;;;;13.53;7.60;;;23.30;53.40;;;;;;1894625;76;21041;-65
2022/04/25 10:44:49;;;;;;;11.10;5.92;;;23.40;53.50;;;;;;1894715;76;21042;-65
2022/04/25 10:47:19;;;;;;;;;;;23.40;53.70;;;;;;1896581;75;21057;-65
2022/04/25 10:49:56;;;;;;;9.28;5.83;;;23.50;53.20;;;;;;1894490;76;20094;-65
2022/04/25 10:52:42;;;;;;;10.58;5.83;;;23.50;53.50;;;;;;1894519;76;21472;-65
2022/04/25 10:55:14;;;;;;;10.58;5.28;;;23.50;53.40;;;;;;1894144;74;21025;-65
2022/04/25 10:58:07;;;;;;;11.97;5.87;;;23.60;53.40;;;;;;1894610;76;21021;-65
2022/04/25 11:00:44;;;;;;;7.40;4.25;;;23.60;53.30;;;;;;1894602;76;20998;-65
2022/04/25 11:03:27;;;;;;;8.78;4.85;;;23.70;52.70;;;;;;1894632;76;21057;-65
2022/04/25 11:06:01;;;;;;;8.15;4.08;;;23.70;52.60;;;;;;1894445;76;21030;-65
2022/04/25 11:08:32;;;;;;;9.48;4.05;;;23.70;52.50;;;;;;1894698;76;21084;-65
2022/04/25 11:11:18;;;;;;;6.87;4.75;;;23.70;52.50;;;;;;1894545;76;21033;-65
2022/04/25 11:14:01;;;;;;;10.05;5.20;;;23.70;52.30;;;;;;1894627;75;21038;-66
2022/04/25 11:16:29;;;;;;;10.75;6.00;;;23.70;52.40;;;;;;1894400;75;21085;-66
2022/04/25 11:19:09;;;;;;;10.03;5.75;;;23.70;52.30;;;;;;1894534;76;21002;-66
2022/04/25 11:21:45;;;;;;;12.82;7.15;;;23.80;52.20;;;;;;1894466;76;21099;-64
2022/04/25 11:24:29;;;;;;;12.33;6.17;;;23.80;52.30;;;;;;1894319;75;21107;-64
2022/04/25 11:27:00;;;;;;;9.88;5.75;;;23.80;51.70;;;;;;1876115;75;21087;-64
2022/04/25 11:29:29;;;;;;;30.27;7.05;;;23.80;51.50;;;;;;1894475;75;21049;-65
2022/04/25 11:32:30;;;;;;;12.35;6.85;;;23.80;51.90;;;;;;1894501;76;21029;-64
2022/04/25 11:35:02;;;;;;;13.32;8.75;;;23.90;51.80;;;;;;1894670;75;21183;-64
2022/04/25 11:37:33;;;;;;;19.40;12.18;;;23.90;52.10;;;;;;1894523;76;21029;-64
2022/04/25 11:40:05;;;;;;;15.03;8.80;;;23.90;51.90;;;;;;1894480;76;21018;-64
2022/04/25 11:42:36;;;;;;;12.93;7.33;;;23.90;51.90;;;;;;1894652;76;21473;-64
2022/04/25 11:45:07;;;;;;;13.25;7.58;;;23.90;51.60;;;;;;1894452;76;21033;-64
2022/04/25 11:47:37;;;;;;;13.22;7.55;;;24.00;52.20;;;;;;1894590;76;21025;-64
2022/04/25 11:50:10;;;;;;;12.25;6.90;;;24.10;51.90;;;;;;1894475;76;21139;-64
2022/04/25 11:52:49;;;;;;;13.93;6.97;;;24.20;51.50;;;;;;1894507;76;21424;-64
2022/04/25 11:55:21;;;;;;;14.70;7.20;;;24.20;51.40;;;;;;1894597;76;21061;-64
2022/04/25 11:57:50;;;;;;;9.30;6.40;;;24.20;51.60;;;;;;1895170;74;21112;-64
2022/04/25 12:00:21;;;;;;;8.50;5.50;;;24.30;51.20;;;;;;1894499;76;21025;-64
2022/04/25 12:02:50;;;;;;;11.55;5.75;;;24.30;51.60;;;;;;1894517;76;21073;-64
2022/04/25 12:05:29;;;;;;;11.78;6.10;;;24.40;51.90;;;;;;1894408;76;21100;-64
2022/04/25 12:16:21;;;;;;;8.75;4.87;;;24.40;51.10;;;;;;1894617;76;21033;-65
2022/04/25 12:18:52;;;;;;;13.13;6.80;;;24.40;50.50;;;;;;1894662;76;21084;-64
2022/04/25 12:21:22;;;;;;;12.43;5.78;;;24.30;50.50;;;;;;1894683;76;21028;-64
2022/04/25 12:23:54;;;;;;;10.23;5.10;;;24.30;50.70;;;;;;1894625;76;21025;-65
2022/04/25 12:26:29;;;;;;;13.88;7.83;;;24.30;50.80;;;;;;1894725;75;21002;-65
2022/04/25 12:29:03;;;;;;;10.53;6.15;;;24.40;50.70;;;;;;1894680;76;21025;-65
2022/04/25 12:31:37;;;;;;;9.13;5.47;;;24.40;50.60;;;;;;1894593;75;21531;-66
2022/04/25 12:34:08;;;;;;;7.90;5.45;;;24.40;49.90;;;;;;1895068;76;21021;-66
2022/04/25 12:36:39;;;;;;;12.82;6.90;;;24.40;50.50;;;;;;1894637;76;21115;-65
2022/04/25 12:39:15;;;;;;;13.15;6.37;;;24.30;50.30;;;;;;1894609;76;21079;-65
2022/04/25 12:42:01;;;;;;;13.62;5.60;;;24.30;50.50;;;;;;1894743;76;21030;-66
2022/04/25 12:44:31;;;;;;;12.60;6.20;;;24.30;50.60;;;;;;1894762;76;21048;-64
2022/04/25 12:47:05;;;;;;;17.32;8.05;;;24.30;51.60;;;;;;1894802;76;21143;-65
2022/04/25 12:49:36;;;;;;;18.40;8.95;;;24.40;50.80;;;;;;1895051;76;21102;-64
2022/04/25 12:52:10;;;;;;;13.05;8.65;;;24.40;50.50;;;;;;1894780;76;21002;-64
2022/04/25 12:54:44;;;;;;;17.10;8.98;;;24.40;50.60;;;;;;1894929;76;21035;-64
2022/04/25 12:57:16;;;;;;;13.05;7.53;;;24.40;50.30;;;;;;1911234;73;21065;-64
2022/04/25 12:59:57;;;;;;;9.88;5.90;;;24.40;50.20;;;;;;1928679;74;21010;-63
2022/04/25 13:02:39;;;;;;;22.50;12.68;;;24.40;50.10;;;;;;1928537;74;21108;-63
2022/04/25 13:05:10;;;;;;;37.98;11.00;;;24.40;50.40;;;;;;1888274;76;21038;-64
2022/04/25 13:07:48;;;;;;;18.27;10.03;;;24.40;50.10;;;;;;1928558;74;21053;-65
2022/04/25 13:10:19;;;;;;;24.47;10.20;;;24.40;49.90;;;;;;1928508;74;21052;-65
2022/04/25 13:12:52;;;;;;;19.00;9.03;;;24.40;50.30;;;;;;1888262;76;21041;-65
2022/04/25 13:15:25;;;;;;;13.68;8.48;;;24.40;50.30;;;;;;1928627;74;21045;-64
2022/04/25 13:17:55;;;;;;;16.02;8.08;;;24.40;50.30;;;;;;1928845;74;21029;-64
2022/04/25 13:20:28;;;;;;;16.97;9.10;;;24.50;50.50;;;;;;1928606;74;21029;-64
2022/04/25 13:22:56;;;;;;;16.73;8.60;;;24.50;50.10;;;;;;1928711;74;21475;-65
2022/04/25 13:25:26;;;;;;;23.15;10.75;;;24.50;50.20;;;;;;1928472;74;21098;-65
2022/04/25 13:27:55;;;;;;;26.07;11.28;;;24.50;50.10;;;;;;1928452;74;21166;-65
2022/04/25 13:30:26;;;;;;;21.07;11.05;;;24.50;49.90;;;;;;1928364;74;21451;-65
2022/04/25 13:32:56;;;;;;;23.52;11.63;;;24.50;49.80;;;;;;1928567;74;21033;-65
2022/04/25 13:35:25;;;;;;;39.53;14.87;;;24.50;50.10;;;;;;1928506;74;21005;-64